Time;durP1;ratioP1;P1;durP2;ratioP2;P2;SDS_P1;SDS_P2;PMS_P1;PMS_P2;Temp;Humidity;BMP_temperature;BMP_pressure;BME280_temperature;BME280_humidity;BME280_pressure;Samples;Min_cycle;Max_cycle;Signal;HPM_P1;HPM_P2
2023/05/27 00:00:01;;;;;;;5.13;2.60;;;17.90;99.90;;;;;;7392032;19;20134;-77
2023/05/27 00:02:27;;;;;;;6.43;2.40;;;17.80;99.90;;;;;;7388636;19;20139;-76
2023/05/27 00:04:53;;;;;;;5.22;2.60;;;17.90;99.90;;;;;;7391267;19;20127;-76
2023/05/27 00:07:18;;;;;;;4.95;2.55;;;18.10;99.90;;;;;;7387402;19;20149;-76
2023/05/27 00:09:45;;;;;;;4.45;2.47;;;18.00;99.90;;;;;;7390112;19;20229;-76
2023/05/27 00:12:11;;;;;;;5.43;2.40;;;18.00;99.90;;;;;;7388080;19;20134;-76
2023/05/27 00:14:37;;;;;;;4.60;2.38;;;18.10;99.90;;;;;;7389565;19;20198;-75
2023/05/27 00:17:03;;;;;;;5.90;2.65;;;18.10;99.90;;;;;;7389062;19;20242;-76
2023/05/27 00:19:30;;;;;;;6.75;2.65;;;18.20;99.90;;;;;;7390293;19;20133;-77
2023/05/27 00:21:56;;;;;;;5.90;2.35;;;18.10;99.90;;;;;;7387961;19;20567;-75
2023/05/27 00:24:23;;;;;;;4.82;2.30;;;17.90;99.90;;;;;;7388517;19;20477;-76
2023/05/27 00:26:49;;;;;;;7.30;3.08;;;18.00;99.90;;;;;;7387848;19;20135;-76
2023/05/27 00:29:17;;;;;;;4.80;2.38;;;18.00;99.90;;;;;;7389429;19;20139;-76
2023/05/27 00:31:42;;;;;;;6.88;3.20;;;18.10;99.90;;;;;;7385384;19;21202;-76
2023/05/27 00:34:08;;;;;;;6.43;2.55;;;18.10;99.90;;;;;;7389738;19;20590;-77
2023/05/27 00:36:35;;;;;;;5.95;2.35;;;18.20;99.90;;;;;;7388740;19;20194;-76
2023/05/27 00:39:01;;;;;;;5.60;2.60;;;18.20;99.90;;;;;;7389217;19;20142;-75
2023/05/27 00:41:27;;;;;;;7.50;2.65;;;18.20;99.90;;;;;;7386634;19;20123;-77
2023/05/27 00:43:53;;;;;;;5.32;2.40;;;18.20;99.90;;;;;;7388051;19;20161;-76
2023/05/27 00:46:19;;;;;;;6.68;2.67;;;18.10;99.90;;;;;;7387534;19;20523;-75
2023/05/27 00:48:47;;;;;;;6.00;3.10;;;18.10;99.90;;;;;;7389796;19;20142;-75
2023/05/27 00:51:12;;;;;;;4.88;2.33;;;18.00;99.90;;;;;;7385943;19;20147;-76
2023/05/27 00:53:43;;;;;;;4.93;2.55;;;18.00;99.90;;;;;;7388993;19;20229;-76
2023/05/27 00:56:09;;;;;;;9.88;2.70;;;18.00;99.90;;;;;;7387901;19;20134;-76
2023/05/27 00:58:36;;;;;;;7.07;2.67;;;17.90;99.90;;;;;;7388037;19;20458;-76
2023/05/27 01:01:07;;;;;;;7.50;3.25;;;18.00;99.90;;;;;;7389010;19;20150;-76
2023/05/27 01:03:33;;;;;;;5.55;2.53;;;17.90;99.90;;;;;;7385150;19;20235;-76
2023/05/27 01:06:11;;;;;;;6.85;2.42;;;18.00;99.90;;;;;;7388125;19;20702;-76
2023/05/27 01:08:59;;;;;;;7.07;2.50;;;17.90;99.90;;;;;;7388139;19;20142;-77
2023/05/27 01:11:32;;;;;;;5.63;2.33;;;17.80;99.90;;;;;;7387710;19;20150;-76
2023/05/27 01:14:07;;;;;;;9.07;2.47;;;17.80;99.90;;;;;;7386809;19;20222;-76
2023/05/27 01:16:39;;;;;;;7.22;2.47;;;17.80;99.90;;;;;;7390677;19;20152;-76
2023/05/27 01:19:11;;;;;;;7.20;2.90;;;17.80;99.90;;;;;;7385661;19;20156;-77
2023/05/27 01:21:39;;;;;;;5.10;2.15;;;17.70;99.90;;;;;;7384117;19;20853;-76
2023/05/27 01:24:05;;;;;;;7.13;2.30;;;17.70;99.90;;;;;;7390796;19;20138;-76
2023/05/27 01:26:31;;;;;;;3.10;2.10;;;17.70;99.90;;;;;;7389497;19;20618;-76
2023/05/27 01:28:57;;;;;;;6.18;2.80;;;17.70;99.90;;;;;;7388512;19;20141;-75
2023/05/27 01:31:40;;;;;;;5.00;2.30;;;17.70;99.90;;;;;;7385592;19;20174;-76
2023/05/27 01:34:11;;;;;;;6.57;2.75;;;17.60;99.90;;;;;;7387407;19;20198;-76
2023/05/27 01:36:50;;;;;;;5.47;2.75;;;17.70;99.90;;;;;;7386050;19;20172;-76
2023/05/27 01:39:17;;;;;;;4.93;2.47;;;17.40;99.90;;;;;;7389390;19;20198;-76
2023/05/27 01:41:45;;;;;;;6.28;2.35;;;17.50;99.90;;;;;;7384180;19;20249;-76
2023/05/27 01:44:10;;;;;;;6.55;2.72;;;17.60;99.90;;;;;;7386370;19;20232;-76
2023/05/27 01:46:36;;;;;;;6.07;2.60;;;17.30;99.90;;;;;;7381741;19;20158;-76
2023/05/27 01:49:03;;;;;;;7.03;2.40;;;17.30;99.90;;;;;;7387143;19;20141;-77
2023/05/27 01:51:29;;;;;;;6.03;2.63;;;17.40;99.90;;;;;;7386371;19;20548;-76
2023/05/27 01:53:54;;;;;;;5.10;2.10;;;17.50;99.90;;;;;;7386287;19;20146;-77
2023/05/27 01:56:22;;;;;;;4.55;2.30;;;17.40;99.90;;;;;;7383504;19;20218;-77
2023/05/27 01:58:48;;;;;;;5.30;2.55;;;17.10;99.90;;;;;;7380366;19;20162;-76
2023/05/27 02:01:13;;;;;;;9.23;2.30;;;17.20;99.90;;;;;;7385166;19;20147;-76
2023/05/27 02:03:40;;;;;;;7.75;2.65;;;17.30;99.90;;;;;;7383303;19;20138;-77
2023/05/27 02:06:05;;;;;;;4.68;2.33;;;17.30;99.90;;;;;;7384890;19;20158;-76
2023/05/27 02:08:33;;;;;;;6.38;2.33;;;17.30;99.90;;;;;;7386898;19;20167;-76
2023/05/27 02:10:59;;;;;;;5.78;2.45;;;17.30;99.90;;;;;;7385051;19;20186;-76
2023/05/27 02:13:25;;;;;;;4.82;2.13;;;17.30;99.90;;;;;;7385745;19;20143;-77
2023/05/27 02:15:50;;;;;;;9.23;2.67;;;17.30;99.90;;;;;;7383812;19;20167;-76
2023/05/27 02:18:17;;;;;;;6.45;2.35;;;17.20;99.90;;;;;;7385513;19;20151;-76
2023/05/27 02:20:42;;;;;;;4.20;2.30;;;17.20;99.90;;;;;;7384503;19;20513;-77
2023/05/27 02:23:10;;;;;;;7.05;2.85;;;17.30;99.90;;;;;;7385483;19;20206;-77
2023/05/27 02:25:36;;;;;;;5.70;2.53;;;17.20;99.90;;;;;;7385855;19;20127;-76
2023/05/27 02:28:02;;;;;;;7.00;2.85;;;17.20;99.90;;;;;;7385228;19;20151;-77
2023/05/27 02:30:30;;;;;;;5.78;2.53;;;17.20;99.90;;;;;;7388968;19;20222;-77
2023/05/27 02:32:57;;;;;;;8.63;2.42;;;17.10;99.90;;;;;;7390151;19;20615;-77
2023/05/27 02:35:22;;;;;;;4.95;2.90;;;17.10;99.90;;;;;;7392012;19;20130;-76
2023/05/27 02:37:48;;;;;;;6.43;2.33;;;17.00;99.90;;;;;;7392346;19;20247;-77
2023/05/27 02:40:27;;;;;;;6.05;2.15;;;16.80;99.90;;;;;;7392102;19;20154;-76
2023/05/27 02:42:53;;;;;;;6.45;2.95;;;16.80;99.90;;;;;;7386991;19;21091;-76
2023/05/27 02:45:19;;;;;;;7.93;2.88;;;16.80;99.90;;;;;;7390076;19;20213;-77
2023/05/27 02:47:45;;;;;;;7.20;2.72;;;16.90;99.90;;;;;;7391773;19;20139;-77
2023/05/27 02:50:11;;;;;;;9.57;2.65;;;16.80;99.90;;;;;;7391773;19;20151;-77
2023/05/27 02:52:36;;;;;;;6.68;2.75;;;16.90;99.90;;;;;;7388775;19;20155;-77
2023/05/27 02:55:02;;;;;;;7.45;2.60;;;17.00;99.90;;;;;;7386886;19;20130;-76
2023/05/27 02:57:28;;;;;;;5.50;2.47;;;17.00;99.90;;;;;;7393772;19;20131;-75
2023/05/27 02:59:54;;;;;;;8.93;3.03;;;16.90;99.90;;;;;;7388150;19;20139;-77
2023/05/27 03:02:20;;;;;;;7.45;2.67;;;17.00;99.90;;;;;;7391089;19;20218;-77
2023/05/27 03:04:45;;;;;;;6.10;2.63;;;16.80;99.90;;;;;;7389978;19;20138;-77
2023/05/27 03:07:11;;;;;;;7.72;2.70;;;16.90;99.90;;;;;;7391595;19;20889;-77
2023/05/27 03:09:37;;;;;;;8.85;2.58;;;16.90;99.90;;;;;;7389556;19;20163;-77
2023/05/27 03:12:03;;;;;;;7.90;2.47;;;16.90;99.90;;;;;;7387438;19;20486;-76
2023/05/27 03:14:28;;;;;;;10.02;2.78;;;17.00;99.90;;;;;;7392718;19;20167;-78
2023/05/27 03:16:55;;;;;;;5.75;2.35;;;16.80;99.90;;;;;;7390367;19;20552;-76
2023/05/27 03:19:21;;;;;;;9.27;3.20;;;16.90;99.90;;;;;;7390605;19;20153;-76
2023/05/27 03:21:47;;;;;;;6.78;2.78;;;16.90;99.90;;;;;;7389963;19;20138;-76
2023/05/27 03:24:13;;;;;;;6.10;2.97;;;16.90;99.90;;;;;;7388520;19;20586;-76
2023/05/27 03:26:39;;;;;;;7.03;2.67;;;16.80;99.90;;;;;;7389784;19;20170;-76
2023/05/27 03:29:05;;;;;;;7.45;2.45;;;16.90;99.90;;;;;;7389560;19;20142;-76
2023/05/27 03:31:31;;;;;;;6.65;2.88;;;16.90;99.90;;;;;;7390390;19;20134;-77
2023/05/27 03:33:57;;;;;;;7.63;2.50;;;16.80;99.90;;;;;;7389267;19;20205;-77
2023/05/27 03:36:22;;;;;;;9.15;2.60;;;16.80;99.90;;;;;;7391342;19;20625;-76
2023/05/27 03:38:48;;;;;;;7.45;2.63;;;16.70;99.90;;;;;;7388275;19;20237;-76
2023/05/27 03:41:14;;;;;;;7.85;2.80;;;16.80;99.90;;;;;;7385570;19;20138;-76
2023/05/27 03:43:43;;;;;;;7.85;2.78;;;16.70;99.90;;;;;;7389531;19;20150;-76
2023/05/27 03:46:08;;;;;;;6.00;2.70;;;16.60;99.90;;;;;;7389022;19;20191;-76
2023/05/27 03:48:34;;;;;;;8.48;2.65;;;16.70;99.90;;;;;;7390738;19;20569;-76
2023/05/27 03:51:00;;;;;;;6.38;2.60;;;16.70;99.90;;;;;;7387686;19;20142;-77
2023/05/27 03:53:25;;;;;;;9.40;2.70;;;16.60;99.90;;;;;;7389205;19;20660;-76
2023/05/27 03:55:51;;;;;;;7.47;2.90;;;16.50;99.90;;;;;;7388186;19;20153;-76
2023/05/27 03:58:17;;;;;;;7.70;2.60;;;16.50;99.90;;;;;;7391963;19;20138;-76
2023/05/27 04:00:43;;;;;;;8.98;3.22;;;16.60;99.90;;;;;;7390476;19;20181;-77
2023/05/27 04:03:09;;;;;;;7.57;2.55;;;16.50;99.90;;;;;;7388200;19;20594;-75
2023/05/27 04:05:35;;;;;;;7.05;2.35;;;16.60;99.90;;;;;;7390359;19;20605;-76
2023/05/27 04:08:03;;;;;;;6.53;2.65;;;16.60;99.90;;;;;;7391048;19;20220;-76
2023/05/27 04:10:29;;;;;;;9.88;3.70;;;16.60;99.90;;;;;;7390119;19;20146;-76
2023/05/27 04:12:55;;;;;;;7.38;2.33;;;16.60;99.90;;;;;;7388547;19;20138;-77
2023/05/27 04:15:21;;;;;;;7.15;2.70;;;16.60;99.90;;;;;;7382107;19;20139;-76
2023/05/27 04:17:47;;;;;;;7.70;3.08;;;16.40;99.90;;;;;;7388821;19;20494;-76
2023/05/27 04:20:13;;;;;;;6.43;2.40;;;16.50;99.90;;;;;;7387134;19;20174;-76
2023/05/27 04:22:45;;;;;;;5.00;2.47;;;16.60;99.90;;;;;;7388766;19;20138;-76
2023/05/27 04:25:11;;;;;;;6.90;2.80;;;16.60;99.90;;;;;;7387922;19;20146;-77
2023/05/27 04:27:36;;;;;;;8.23;2.78;;;16.50;99.90;;;;;;7391006;19;20146;-76
2023/05/27 04:30:06;;;;;;;6.63;2.90;;;16.50;99.90;;;;;;7386277;19;20157;-76
2023/05/27 04:32:32;;;;;;;9.48;2.70;;;16.40;99.90;;;;;;7387428;19;20225;-76
2023/05/27 04:35:01;;;;;;;6.35;2.42;;;16.40;99.90;;;;;;7388583;19;20131;-76
2023/05/27 04:37:27;;;;;;;7.65;2.67;;;16.30;99.90;;;;;;7389408;19;20147;-75
2023/05/27 04:39:56;;;;;;;8.65;3.00;;;16.20;99.90;;;;;;7388230;19;20139;-76
2023/05/27 04:42:25;;;;;;;10.60;2.67;;;16.30;99.90;;;;;;7387700;19;20161;-77
2023/05/27 04:44:50;;;;;;;7.40;2.70;;;16.30;99.90;;;;;;7386763;19;20213;-76
2023/05/27 04:47:16;;;;;;;3.97;2.17;;;16.30;99.90;;;;;;7388425;19;20147;-76
2023/05/27 04:49:44;;;;;;;10.68;3.78;;;16.20;99.90;;;;;;7386236;19;20137;-75
2023/05/27 04:52:09;;;;;;;6.85;3.42;;;16.20;99.90;;;;;;7383450;19;20487;-76
2023/05/27 04:54:35;;;;;;;8.75;2.60;;;16.20;99.90;;;;;;7388136;19;20161;-76
2023/05/27 04:57:01;;;;;;;6.47;2.42;;;16.20;99.90;;;;;;7386729;19;20146;-76
2023/05/27 04:59:45;;;;;;;8.10;2.67;;;16.40;99.90;;;;;;7388403;19;20171;-76
2023/05/27 05:02:21;;;;;;;10.35;2.70;;;16.40;99.90;;;;;;7385838;19;20157;-76
2023/05/27 05:04:47;;;;;;;6.60;2.38;;;16.40;99.90;;;;;;7388472;19;20487;-76
2023/05/27 05:07:13;;;;;;;10.63;3.10;;;16.40;99.90;;;;;;7388091;19;20127;-76
2023/05/27 05:09:39;;;;;;;6.25;2.70;;;16.30;99.90;;;;;;7386533;19;20138;-77
2023/05/27 05:12:06;;;;;;;6.35;2.65;;;16.50;99.90;;;;;;7384716;19;20135;-76
2023/05/27 05:14:31;;;;;;;9.07;2.88;;;16.60;99.90;;;;;;7388205;19;20162;-77
2023/05/27 05:16:57;;;;;;;7.55;2.05;;;16.60;99.90;;;;;;7386749;19;20557;-77
2023/05/27 05:19:23;;;;;;;10.93;2.60;;;16.90;99.90;;;;;;7388210;19;20142;-76
2023/05/27 05:21:49;;;;;;;8.50;2.33;;;16.70;99.90;;;;;;7385955;19;20177;-77
2023/05/27 05:24:15;;;;;;;8.52;2.70;;;16.70;99.90;;;;;;7386016;19;20161;-77
2023/05/27 05:26:40;;;;;;;11.00;3.05;;;16.60;99.90;;;;;;7387407;19;20150;-76
2023/05/27 05:29:06;;;;;;;7.63;2.35;;;16.60;99.90;;;;;;7386063;19;20237;-77
2023/05/27 05:31:32;;;;;;;8.48;3.42;;;16.60;99.90;;;;;;7384865;19;20131;-76
2023/05/27 05:33:57;;;;;;;7.75;2.63;;;16.70;99.90;;;;;;7385420;19;20142;-77
2023/05/27 05:36:24;;;;;;;10.07;2.63;;;16.60;99.90;;;;;;7386339;19;20158;-76
2023/05/27 05:38:49;;;;;;;6.05;2.50;;;16.40;99.90;;;;;;7386627;19;20142;-77
2023/05/27 05:41:15;;;;;;;9.00;3.60;;;16.60;99.90;;;;;;7386918;19;20167;-77
2023/05/27 05:43:41;;;;;;;10.85;3.30;;;16.60;99.90;;;;;;7384448;19;20226;-76
2023/05/27 05:46:07;;;;;;;14.40;3.10;;;16.60;99.90;;;;;;7384827;19;20154;-75
2023/05/27 05:48:32;;;;;;;11.85;3.08;;;16.60;99.90;;;;;;7385801;19;20154;-79
2023/05/27 05:51:00;;;;;;;6.07;2.65;;;16.70;99.90;;;;;;7385204;19;20142;-78
2023/05/27 05:53:28;;;;;;;12.52;2.80;;;16.60;99.90;;;;;;7387162;19;20138;-79
2023/05/27 05:55:54;;;;;;;7.93;2.97;;;16.60;99.90;;;;;;7387390;19;20138;-79
2023/05/27 05:58:19;;;;;;;8.52;2.83;;;16.60;99.90;;;;;;7384890;19;20498;-79
2023/05/27 06:00:46;;;;;;;10.98;3.03;;;16.60;99.90;;;;;;7387443;19;20145;-80
2023/05/27 06:03:13;;;;;;;5.80;2.72;;;16.60;99.90;;;;;;7385252;19;20157;-80
2023/05/27 06:05:38;;;;;;;7.30;2.70;;;16.60;99.90;;;;;;7392027;19;20435;-79
2023/05/27 06:08:04;;;;;;;7.13;2.88;;;16.60;99.90;;;;;;7391795;19;20163;-78
2023/05/27 06:10:30;;;;;;;6.70;3.00;;;16.60;99.90;;;;;;7393184;19;20150;-80
2023/05/27 06:12:56;;;;;;;9.65;2.67;;;16.60;99.90;;;;;;7390338;19;20138;-79
2023/05/27 06:15:22;;;;;;;11.52;3.50;;;17.70;99.90;;;;;;7387746;19;20135;-80
2023/05/27 06:17:47;;;;;;;7.38;2.60;;;19.40;99.90;;;;;;7390604;19;20227;-80
2023/05/27 06:20:13;;;;;;;6.95;2.60;;;20.80;99.90;;;;;;7389360;19;20126;-81
2023/05/27 06:22:39;;;;;;;9.32;3.63;;;21.60;99.90;;;;;;7392025;19;20215;-82
2023/05/27 06:25:06;;;;;;;10.23;2.42;;;22.30;99.50;;;;;;7391015;19;20469;-81
2023/05/27 06:27:32;;;;;;;10.75;3.33;;;22.90;98.10;;;;;;7393582;19;20134;-81
2023/05/27 06:29:57;;;;;;;12.50;3.67;;;23.20;97.20;;;;;;7392279;19;20161;-80
2023/05/27 06:32:23;;;;;;;6.82;3.00;;;23.40;96.40;;;;;;7391049;19;20145;-81
2023/05/27 06:34:49;;;;;;;7.03;2.50;;;23.20;96.50;;;;;;7392240;19;20606;-81
2023/05/27 06:37:15;;;;;;;11.55;3.35;;;23.30;96.20;;;;;;7391671;19;20162;-80
2023/05/27 06:39:42;;;;;;;6.68;2.80;;;23.60;95.50;;;;;;7391073;19;20143;-81
2023/05/27 06:42:08;;;;;;;9.85;3.08;;;23.60;95.50;;;;;;7392161;19;20172;-81
2023/05/27 06:44:33;;;;;;;6.35;2.10;;;23.30;95.60;;;;;;7392717;19;20131;-81
2023/05/27 06:47:01;;;;;;;6.55;3.10;;;23.10;96.10;;;;;;7391254;19;20131;-81
2023/05/27 06:49:27;;;;;;;6.97;3.10;;;23.20;95.90;;;;;;7393554;19;20603;-81
2023/05/27 06:51:53;;;;;;;7.20;3.05;;;23.40;95.60;;;;;;7385663;19;20155;-82
2023/05/27 06:54:19;;;;;;;8.30;3.22;;;23.10;95.80;;;;;;7389643;19;20610;-80
2023/05/27 06:56:45;;;;;;;8.82;3.75;;;22.90;96.10;;;;;;7391912;19;20134;-80
2023/05/27 06:59:11;;;;;;;8.70;3.45;;;23.00;95.90;;;;;;7391946;19;20156;-80
2023/05/27 07:01:37;;;;;;;6.57;3.10;;;22.80;96.00;;;;;;7391533;19;20161;-82
2023/05/27 07:04:03;;;;;;;8.15;2.70;;;22.40;96.50;;;;;;7388953;19;20135;-79
2023/05/27 07:06:29;;;;;;;10.63;2.92;;;22.30;96.80;;;;;;7390179;19;20151;-79
2023/05/27 07:08:55;;;;;;;6.32;3.17;;;22.00;97.00;;;;;;7389298;19;20143;-79
2023/05/27 07:11:21;;;;;;;5.50;2.38;;;22.00;97.30;;;;;;7390045;19;20155;-81
2023/05/27 07:13:47;;;;;;;8.43;2.92;;;21.90;97.30;;;;;;7388879;19;20150;-80
2023/05/27 07:16:15;;;;;;;7.47;2.63;;;22.10;97.30;;;;;;7388654;19;20129;-79
2023/05/27 07:18:41;;;;;;;8.20;2.90;;;22.10;97.20;;;;;;7390969;19;20139;-80
2023/05/27 07:21:07;;;;;;;9.90;2.85;;;22.20;97.10;;;;;;7390079;19;20157;-77
2023/05/27 07:23:33;;;;;;;7.35;2.35;;;22.30;96.80;;;;;;7389698;19;20177;-78
2023/05/27 07:25:58;;;;;;;6.32;3.00;;;22.40;96.90;;;;;;7384689;19;20498;-80
2023/05/27 07:28:24;;;;;;;7.75;2.53;;;22.40;96.90;;;;;;7386988;19;20135;-80
2023/05/27 07:30:50;;;;;;;8.75;2.85;;;22.60;96.70;;;;;;7383253;19;20864;-80
2023/05/27 07:33:16;;;;;;;8.90;2.90;;;22.30;97.00;;;;;;7387738;19;20147;-80
2023/05/27 07:35:42;;;;;;;6.47;2.55;;;22.30;97.10;;;;;;7388058;19;20171;-80
2023/05/27 07:38:07;;;;;;;7.60;2.83;;;22.40;97.00;;;;;;7388409;19;20131;-81
2023/05/27 07:40:33;;;;;;;9.00;3.42;;;22.50;96.90;;;;;;7385928;19;20169;-79
2023/05/27 07:42:59;;;;;;;8.57;3.00;;;22.60;96.80;;;;;;7384362;19;20217;-80
2023/05/27 07:45:25;;;;;;;7.90;3.13;;;22.80;96.50;;;;;;7387673;19;20177;-82
2023/05/27 07:47:51;;;;;;;7.85;3.00;;;23.00;96.30;;;;;;7387105;19;20141;-81
2023/05/27 07:50:17;;;;;;;10.80;3.08;;;23.20;96.20;;;;;;7388541;19;20213;-79
2023/05/27 07:52:43;;;;;;;7.82;3.25;;;23.20;95.70;;;;;;7378048;19;20146;-79
2023/05/27 07:55:09;;;;;;;7.57;2.72;;;23.10;95.70;;;;;;7377921;19;20165;-79
2023/05/27 07:57:34;;;;;;;5.07;2.30;;;23.00;96.00;;;;;;7384485;19;20141;-76
2023/05/27 08:00:00;;;;;;;7.57;2.75;;;23.10;95.80;;;;;;7389259;19;20750;-78
2023/05/27 08:02:26;;;;;;;9.02;3.42;;;22.80;95.80;;;;;;7389518;19;20210;-81
2023/05/27 08:04:52;;;;;;;11.05;3.03;;;22.80;96.10;;;;;;7389228;19;20151;-75
2023/05/27 08:07:18;;;;;;;7.85;3.00;;;22.70;96.10;;;;;;7390110;19;20632;-76
2023/05/27 08:09:43;;;;;;;8.18;3.10;;;22.70;96.10;;;;;;7389528;19;20603;-77
2023/05/27 08:12:09;;;;;;;7.50;2.75;;;22.80;96.00;;;;;;7385894;19;20618;-78
2023/05/27 08:14:39;;;;;;;9.77;2.75;;;22.90;95.70;;;;;;7390811;19;20139;-80
2023/05/27 08:17:05;;;;;;;6.03;2.88;;;22.70;95.90;;;;;;7376211;19;20145;-78
2023/05/27 08:19:31;;;;;;;9.63;2.75;;;22.70;96.50;;;;;;7389953;19;20590;-80
2023/05/27 08:21:57;;;;;;;11.00;3.00;;;22.90;95.70;;;;;;7383150;19;20218;-82
2023/05/27 08:24:27;;;;;;;6.35;3.17;;;23.20;95.70;;;;;;7350362;19;20147;-83
2023/05/27 08:26:53;;;;;;;7.18;3.53;;;23.60;95.60;;;;;;7380913;19;20387;-79
2023/05/27 08:29:19;;;;;;;6.25;3.03;;;23.60;94.60;;;;;;7388385;19;20405;-80
2023/05/27 08:31:45;;;;;;;8.23;2.97;;;23.90;94.90;;;;;;7376504;19;20158;-80
2023/05/27 08:34:19;;;;;;;9.20;2.95;;;24.20;93.90;;;;;;7388318;19;20162;-84
2023/05/27 08:36:45;;;;;;;7.43;3.13;;;23.90;93.90;;;;;;7383967;19;20139;-79
2023/05/27 08:39:12;;;;;;;9.18;3.10;;;23.70;94.10;;;;;;7384623;19;20141;-78
2023/05/27 08:41:38;;;;;;;7.82;3.10;;;23.40;94.20;;;;;;7381542;19;20196;-76
2023/05/27 08:44:14;;;;;;;7.70;3.25;;;23.40;95.10;;;;;;7378404;19;20137;-74
2023/05/27 08:46:43;;;;;;;5.95;2.80;;;23.40;94.60;;;;;;7381721;19;20163;-74
2023/05/27 08:49:09;;;;;;;7.07;2.97;;;23.20;94.70;;;;;;7388081;19;20162;-72
2023/05/27 08:51:39;;;;;;;10.23;3.45;;;23.20;94.90;;;;;;7384721;19;20543;-76
2023/05/27 08:54:09;;;;;;;6.05;3.45;;;23.30;95.00;;;;;;7383860;19;20165;-75
2023/05/27 08:56:51;;;;;;;7.82;3.15;;;23.30;94.90;;;;;;7301171;19;52343;-75
2023/05/27 08:59:17;;;;;;;7.82;3.38;;;23.20;95.40;;;;;;7371715;19;20512;-75
2023/05/27 09:01:43;;;;;;;8.55;2.88;;;23.20;95.00;;;;;;7375536;19;20202;-76
2023/05/27 09:04:09;;;;;;;7.20;2.85;;;23.20;95.10;;;;;;7385900;19;20139;-76
2023/05/27 09:06:34;;;;;;;7.78;3.38;;;23.30;95.60;;;;;;7381073;19;20142;-75
2023/05/27 09:09:00;;;;;;;9.65;3.50;;;23.60;94.70;;;;;;7380912;19;20914;-77
2023/05/27 09:11:34;;;;;;;8.02;3.05;;;23.30;94.80;;;;;;7384565;19;20493;-74
2023/05/27 09:13:59;;;;;;;5.30;2.75;;;23.10;94.90;;;;;;7387993;19;20230;-75
2023/05/27 09:16:25;;;;;;;8.20;3.35;;;22.90;95.50;;;;;;7387253;19;20142;-76
2023/05/27 09:18:51;;;;;;;6.05;2.80;;;22.90;95.60;;;;;;7385634;19;20173;-75
2023/05/27 09:21:17;;;;;;;7.20;3.28;;;22.90;95.40;;;;;;7385028;19;20126;-74
2023/05/27 09:23:43;;;;;;;9.27;3.58;;;22.90;95.30;;;;;;7376281;19;20150;-74
2023/05/27 09:26:12;;;;;;;6.35;3.25;;;22.80;95.50;;;;;;7384659;19;20154;-75
2023/05/27 09:28:39;;;;;;;4.60;3.28;;;22.80;95.60;;;;;;7381414;19;20501;-75
2023/05/27 09:31:06;;;;;;;6.35;2.90;;;22.80;95.90;;;;;;7369545;19;21202;-74
2023/05/27 09:33:38;;;;;;;8.95;3.67;;;23.10;96.40;;;;;;7385744;19;20131;-76
2023/05/27 09:36:05;;;;;;;5.68;2.72;;;23.20;95.40;;;;;;7386407;19;20546;-76
2023/05/27 09:38:32;;;;;;;6.72;2.95;;;23.00;95.40;;;;;;7386188;19;20155;-76
2023/05/27 09:41:03;;;;;;;6.47;3.53;;;22.90;95.90;;;;;;7388419;19;20142;-76
2023/05/27 09:43:29;;;;;;;6.25;2.90;;;22.90;95.80;;;;;;7383739;19;20147;-76
2023/05/27 09:46:03;;;;;;;5.38;3.17;;;23.00;95.80;;;;;;7361335;19;20154;-76
2023/05/27 09:48:32;;;;;;;4.97;2.83;;;23.10;95.60;;;;;;7376833;19;20612;-76
2023/05/27 09:51:04;;;;;;;5.07;2.92;;;23.10;95.60;;;;;;7383815;19;20154;-75
2023/05/27 09:53:32;;;;;;;4.95;2.90;;;23.20;95.50;;;;;;7384465;19;20139;-75
2023/05/27 09:55:59;;;;;;;6.47;4.05;;;23.20;95.60;;;;;;7384072;19;20149;-76
2023/05/27 09:58:25;;;;;;;8.07;3.70;;;23.30;95.90;;;;;;7386490;19;20154;-75
2023/05/27 10:00:53;;;;;;;6.13;3.22;;;23.60;96.20;;;;;;7387608;19;20146;-76
2023/05/27 10:03:23;;;;;;;8.02;3.50;;;23.90;95.40;;;;;;7385764;19;20161;-75
2023/05/27 10:05:51;;;;;;;5.20;3.10;;;24.10;95.00;;;;;;7385062;19;20150;-76
2023/05/27 10:08:35;;;;;;;9.30;4.57;;;24.00;94.90;;;;;;7384564;19;20155;-78
2023/05/27 10:11:01;;;;;;;6.32;3.33;;;24.10;94.40;;;;;;7386139;19;20158;-77
2023/05/27 10:13:27;;;;;;;6.55;3.53;;;23.90;94.60;;;;;;7382732;19;20184;-76
2023/05/27 10:15:53;;;;;;;5.35;3.05;;;23.90;95.10;;;;;;7381703;19;20147;-77
2023/05/27 10:18:42;;;;;;;5.90;3.10;;;23.90;94.70;;;;;;7383288;19;20146;-77
2023/05/27 10:21:22;;;;;;;7.57;3.33;;;24.00;94.50;;;;;;7370376;19;20245;-76
2023/05/27 10:24:02;;;;;;;7.03;3.28;;;23.90;94.60;;;;;;7372641;19;20154;-76
2023/05/27 10:26:41;;;;;;;7.35;2.80;;;23.90;94.70;;;;;;7384829;19;20165;-77
2023/05/27 10:29:19;;;;;;;6.43;3.10;;;23.80;94.70;;;;;;7384362;19;20154;-76
2023/05/27 10:31:46;;;;;;;7.57;3.40;;;23.70;94.60;;;;;;7383317;19;20142;-76
2023/05/27 10:34:12;;;;;;;6.70;3.03;;;23.70;94.90;;;;;;7383748;19;20222;-75
2023/05/27 10:36:38;;;;;;;4.05;2.60;;;23.80;94.20;;;;;;7386564;19;20150;-76
2023/05/27 10:39:06;;;;;;;6.35;3.60;;;23.70;94.70;;;;;;7379150;19;20255;-76
2023/05/27 10:41:43;;;;;;;7.28;3.10;;;23.80;94.70;;;;;;7381945;19;20159;-76
2023/05/27 10:44:10;;;;;;;6.18;3.28;;;23.80;94.90;;;;;;7381518;19;20260;-76
2023/05/27 10:46:41;;;;;;;7.80;3.28;;;24.00;94.30;;;;;;7376124;19;20134;-76
2023/05/27 10:49:15;;;;;;;5.93;3.63;;;23.90;94.50;;;;;;7376630;19;20147;-76
2023/05/27 10:51:43;;;;;;;6.53;3.42;;;23.90;94.20;;;;;;7383515;19;20164;-77
2023/05/27 10:54:09;;;;;;;5.53;3.35;;;23.90;94.00;;;;;;7384842;19;20134;-77
2023/05/27 10:56:35;;;;;;;8.13;3.72;;;23.80;94.10;;;;;;7388296;19;21005;-75
2023/05/27 10:59:04;;;;;;;8.50;3.42;;;23.80;94.20;;;;;;7386659;19;20157;-79
2023/05/27 11:01:33;;;;;;;8.60;3.45;;;23.80;94.70;;;;;;7391962;19;20661;-77
2023/05/27 11:03:58;;;;;;;6.32;3.15;;;23.80;94.00;;;;;;7391297;19;20724;-76
2023/05/27 11:06:24;;;;;;;5.55;3.00;;;23.90;94.20;;;;;;7389103;19;20130;-76
2023/05/27 11:08:50;;;;;;;6.55;2.90;;;23.90;94.10;;;;;;7391146;19;20194;-77
2023/05/27 11:11:16;;;;;;;7.63;3.92;;;23.90;93.70;;;;;;7390417;19;20146;-76
2023/05/27 11:13:43;;;;;;;6.53;3.90;;;23.80;93.30;;;;;;7391551;19;20441;-77
2023/05/27 11:16:10;;;;;;;6.93;3.60;;;23.70;93.90;;;;;;7392738;19;20146;-76
2023/05/27 11:18:41;;;;;;;7.03;3.38;;;23.80;93.30;;;;;;7393383;19;20202;-79
2023/05/27 11:21:12;;;;;;;9.35;3.53;;;23.90;92.80;;;;;;7391306;19;20908;-76
2023/05/27 11:23:43;;;;;;;5.82;3.65;;;24.00;92.40;;;;;;7391205;19;20154;-77
2023/05/27 11:26:19;;;;;;;8.00;5.00;;;24.10;93.00;;;;;;7390900;19;20202;-76
2023/05/27 11:28:54;;;;;;;9.90;5.05;;;24.20;92.50;;;;;;7392319;19;20199;-76
2023/05/27 11:31:21;;;;;;;8.93;4.88;;;24.30;92.10;;;;;;7392132;19;20134;-76
2023/05/27 11:33:50;;;;;;;7.70;3.95;;;24.40;92.00;;;;;;7389755;19;20148;-77
2023/05/27 11:36:16;;;;;;;8.57;4.22;;;24.40;91.70;;;;;;7390220;19;20202;-76
2023/05/27 11:39:00;;;;;;;7.57;3.90;;;24.20;91.70;;;;;;7391093;19;20265;-76
2023/05/27 11:41:28;;;;;;;6.90;3.60;;;24.30;92.20;;;;;;7391122;19;20135;-75
2023/05/27 11:44:04;;;;;;;7.60;3.20;;;24.50;91.70;;;;;;7391935;19;20127;-75
2023/05/27 11:46:38;;;;;;;9.48;3.53;;;24.50;91.50;;;;;;7392031;19;20146;-76
2023/05/27 11:49:08;;;;;;;4.32;2.85;;;24.40;91.80;;;;;;7391565;19;20590;-76
2023/05/27 11:51:37;;;;;;;6.82;2.78;;;24.50;91.50;;;;;;7388637;19;20122;-75
2023/05/27 11:54:03;;;;;;;5.05;3.10;;;24.30;91.50;;;;;;7391069;19;20486;-76
2023/05/27 11:56:29;;;;;;;7.65;3.58;;;24.30;91.80;;;;;;7390739;19;20137;-76
2023/05/27 11:58:56;;;;;;;8.88;5.03;;;24.50;91.40;;;;;;7389432;19;20135;-76
2023/05/27 12:01:22;;;;;;;7.65;3.83;;;24.70;90.80;;;;;;7389873;19;20173;-76
2023/05/27 12:03:48;;;;;;;5.47;3.17;;;24.80;90.50;;;;;;7392206;19;20150;-77
2023/05/27 12:06:14;;;;;;;7.28;3.50;;;24.80;90.30;;;;;;7391387;19;20532;-75
2023/05/27 12:08:41;;;;;;;6.60;3.70;;;24.70;90.80;;;;;;7394872;19;20137;-76
2023/05/27 12:11:07;;;;;;;4.43;2.83;;;24.80;90.00;;;;;;7390150;19;20159;-77
2023/05/27 12:13:33;;;;;;;5.35;3.08;;;24.80;90.40;;;;;;7391860;19;20238;-75
2023/05/27 12:15:59;;;;;;;7.10;3.80;;;24.80;90.00;;;;;;7390954;19;20655;-76
2023/05/27 12:18:25;;;;;;;7.80;3.83;;;24.60;90.40;;;;;;7394551;19;20147;-76
2023/05/27 12:20:51;;;;;;;5.85;3.28;;;24.80;90.00;;;;;;7390894;19;20122;-76
2023/05/27 12:23:17;;;;;;;7.13;4.03;;;24.60;90.30;;;;;;7392702;19;20135;-77
2023/05/27 12:25:43;;;;;;;7.90;3.53;;;24.60;90.60;;;;;;7392167;19;20135;-76
2023/05/27 12:28:10;;;;;;;8.27;3.85;;;24.70;90.50;;;;;;7392554;19;20130;-77
2023/05/27 12:30:36;;;;;;;6.05;3.63;;;24.80;90.10;;;;;;7393108;19;20198;-76
2023/05/27 12:33:03;;;;;;;7.97;3.75;;;24.80;90.20;;;;;;7389918;19;20146;-75
2023/05/27 12:35:30;;;;;;;6.10;3.58;;;24.70;89.60;;;;;;7394261;19;20133;-75
2023/05/27 12:37:56;;;;;;;5.63;3.33;;;24.70;90.40;;;;;;7398342;19;20138;-76
2023/05/27 12:40:22;;;;;;;5.07;3.45;;;24.70;90.00;;;;;;7397688;19;20130;-77
2023/05/27 12:42:48;;;;;;;4.45;3.20;;;24.80;90.00;;;;;;7395590;19;20570;-76
2023/05/27 12:45:14;;;;;;;5.95;3.45;;;24.90;89.90;;;;;;7399000;19;20473;-76